Time;durP1;ratioP1;P1;durP2;ratioP2;P2;SDS_P1;SDS_P2;PMS_P1;PMS_P2;Temp;Humidity;BMP_temperature;BMP_pressure;BME280_temperature;BME280_humidity;BME280_pressure;Samples;Min_cycle;Max_cycle;Signal;HPM_P1;HPM_P2
2022/12/18 00:01:05;;;;;;;9.18;4.17;;;;;;;1.34;68.03;100735.08;1757369;79;21439;-74
2022/12/18 00:03:30;;;;;;;10.28;5.33;;;;;;;1.36;68.22;100739.33;1764548;79;21697;-75
2022/12/18 00:05:57;;;;;;;10.48;4.87;;;;;;;1.34;68.01;100769.63;1757452;79;21570;-75
2022/12/18 00:08:25;;;;;;;13.15;5.87;;;;;;;1.30;67.76;100773.23;1767134;79;21000;-74
2022/12/18 00:10:51;;;;;;;14.33;5.30;;;;;;;1.22;67.70;100757.10;1768659;79;21233;-74
2022/12/18 00:13:18;;;;;;;12.45;4.90;;;;;;;1.21;67.84;100766.64;1711134;82;21097;-73
2022/12/18 00:15:45;;;;;;;11.68;6.28;;;;;;;1.17;67.72;100748.64;1760691;79;21109;-74
2022/12/18 00:18:12;;;;;;;11.08;5.35;;;;;;;1.16;67.89;100749.11;1767943;79;21483;-73
2022/12/18 00:20:39;;;;;;;12.33;5.70;;;;;;;1.21;67.91;100751.52;1761392;79;21637;-73
2022/12/18 00:23:06;;;;;;;12.85;5.22;;;;;;;1.25;67.74;100753.95;1765626;79;21637;-74
2022/12/18 00:25:34;;;;;;;12.65;7.10;;;;;;;1.27;67.28;100761.22;1770847;79;20992;-73
2022/12/18 00:28:03;;;;;;;12.95;4.90;;;;;;;1.24;67.18;100762.61;1765010;79;21052;-72
2022/12/18 00:30:29;;;;;;;11.80;6.22;;;;;;;1.22;67.46;100757.10;1770424;79;21117;-74
2022/12/18 00:32:57;;;;;;;11.75;5.33;;;;;;;1.24;66.89;100765.20;1767102;79;21429;-73
2022/12/18 00:35:25;;;;;;;10.82;5.72;;;;;;;1.32;66.92;100780.97;1764819;79;21302;-73
2022/12/18 00:37:53;;;;;;;10.48;5.12;;;;;;;1.34;66.69;100783.05;1763155;79;21036;-72
2022/12/18 00:40:19;;;;;;;12.70;4.75;;;;;;;1.33;66.41;100789.13;1769057;79;21524;-75
2022/12/18 00:42:57;;;;;;;13.78;5.62;;;;;;;1.25;66.52;100789.41;1761451;79;21451;-72
2022/12/18 00:45:29;;;;;;;11.57;5.05;;;;;;;1.18;66.65;100791.36;1758029;79;21102;-74
2022/12/18 00:47:55;;;;;;;10.60;4.92;;;;;;;1.17;66.72;100798.73;1765076;79;22010;-73
2022/12/18 00:50:24;;;;;;;12.10;5.60;;;;;;;1.17;66.97;100800.48;1764531;79;21083;-74
2022/12/18 00:52:50;;;;;;;12.37;5.53;;;;;;;1.21;66.83;100796.87;1764093;79;21090;-74
2022/12/18 00:55:17;;;;;;;11.25;5.83;;;;;;;1.19;66.56;100801.27;1726672;81;21103;-74
2022/12/18 00:57:44;;;;;;;12.82;6.08;;;;;;;1.25;66.26;100803.66;1768184;79;21039;-73
2022/12/18 01:00:14;;;;;;;13.88;6.00;;;;;;;1.31;66.21;100799.55;1767562;79;21432;-76
2022/12/18 01:02:42;;;;;;;12.80;5.90;;;;;;;1.35;65.84;100802.91;1712484;82;21090;-74
2022/12/18 01:05:10;;;;;;;11.55;6.20;;;;;;;1.23;65.37;100814.08;1769072;79;21062;-73
2022/12/18 01:07:37;;;;;;;10.23;4.65;;;;;;;1.10;65.37;100811.52;1762150;79;21599;-74
2022/12/18 01:10:05;;;;;;;11.53;5.40;;;;;;;1.07;65.41;100821.98;1761226;79;21577;-74
2022/12/18 01:12:32;;;;;;;10.15;5.40;;;;;;;0.94;65.49;100837.07;1763434;79;21157;-72
2022/12/18 01:14:59;;;;;;;15.98;5.72;;;;;;;0.95;65.49;100834.89;1764190;79;20977;-73
2022/12/18 01:17:25;;;;;;;11.30;6.12;;;;;;;0.95;65.54;100834.05;1765117;79;21028;-73
2022/12/18 01:19:53;;;;;;;13.28;5.47;;;;;;;0.98;65.39;100842.57;1765843;79;21023;-73
2022/12/18 01:22:20;;;;;;;11.33;5.08;;;;;;;0.95;65.18;100840.53;1762200;79;21027;-76
2022/12/18 01:24:46;;;;;;;10.38;4.58;;;;;;;0.91;64.93;100845.81;1720804;81;21234;-77
2022/12/18 01:27:13;;;;;;;10.03;4.65;;;;;;;0.74;65.17;100855.88;1697721;82;21051;-77
2022/12/18 01:29:39;;;;;;;14.20;6.87;;;;;;;0.69;65.22;100856.44;1762600;79;21047;-74
2022/12/18 01:32:06;;;;;;;10.60;5.42;;;;;;;0.62;65.64;100856.24;1766862;79;21087;-75
2022/12/18 01:34:34;;;;;;;11.40;5.92;;;;;;;0.57;65.71;100846.48;1759576;79;21090;-75
2022/12/18 01:37:04;;;;;;;12.00;6.78;;;;;;;0.60;65.81;100847.69;1762652;79;21231;-76
2022/12/18 01:39:31;;;;;;;10.55;4.72;;;;;;;0.60;65.71;100845.93;1769919;79;21102;-76
2022/12/18 01:42:06;;;;;;;13.22;6.12;;;;;;;0.59;65.36;100863.67;1757828;79;21066;-75
2022/12/18 01:45:10;;;;;;;9.33;5.20;;;;;;;0.57;65.38;100858.13;1761672;79;21098;-74
2022/12/18 01:48:00;;;;;;;14.03;5.37;;;;;;;0.55;65.36;100875.01;1761647;79;21042;-75
2022/12/18 01:50:33;;;;;;;13.18;7.30;;;;;;;0.45;65.22;100882.66;1763781;79;21411;-74
2022/12/18 02:28:13;;;;;;;10.72;4.87;;;;;;;0.32;65.11;100926.17;1752897;80;20947;-74
2022/12/18 02:30:40;;;;;;;13.88;5.60;;;;;;;0.30;64.75;100922.78;1704886;81;21302;-74
2022/12/18 02:33:07;;;;;;;9.93;5.03;;;;;;;0.31;64.86;100920.61;1702127;80;21081;-74
2022/12/18 02:35:34;;;;;;;14.10;6.50;;;;;;;0.36;64.67;100939.45;1735312;80;21073;-74
2022/12/18 02:38:02;;;;;;;15.60;5.95;;;;;;;0.35;64.58;100938.61;1738858;80;21515;-74
2022/12/18 02:40:29;;;;;;;11.10;5.15;;;;;;;0.36;64.73;100926.50;1738705;80;21086;-75
2022/12/18 02:43:12;;;;;;;9.93;4.92;;;;;;;0.42;64.23;100937.98;1745095;80;21278;-74
2022/12/18 02:45:52;;;;;;;12.75;6.08;;;;;;;0.41;64.20;100943.20;1683509;83;21061;-75
2022/12/18 02:48:22;;;;;;;15.40;6.42;;;;;;;0.39;64.19;100953.60;1669104;83;21099;-75
2022/12/18 02:51:04;;;;;;;13.80;5.87;;;;;;;0.33;64.22;100962.37;1737573;80;22510;-73
2022/12/18 02:54:00;;;;;;;11.00;4.58;;;;;;;0.26;64.51;100962.61;1740235;80;21582;-76
2022/12/18 02:56:35;;;;;;;13.95;6.08;;;;;;;0.27;64.40;100973.34;1740293;80;21221;-75
2022/12/18 02:59:14;;;;;;;19.17;5.83;;;;;;;0.25;64.69;100963.03;1738880;80;21678;-75
2022/12/18 03:02:28;;;;;;;14.53;7.58;;;;;;;0.19;64.87;100974.86;1742930;80;21042;-74
2022/12/18 03:05:04;;;;;;;18.98;6.08;;;;;;;0.20;65.01;100967.94;1685200;83;21102;-74
2022/12/18 03:08:04;;;;;;;16.80;8.30;;;;;;;0.22;65.19;100972.63;1742679;80;21081;-75
2022/12/18 03:10:35;;;;;;;15.72;6.58;;;;;;;0.26;65.03;100982.02;1740664;80;21174;-75
2022/12/18 03:13:12;;;;;;;16.60;7.45;;;;;;;0.36;64.42;101001.58;1742447;80;21478;-75
2022/12/18 03:16:27;;;;;;;13.03;5.30;;;;;;;0.15;64.60;100992.64;1790844;78;22613;-58
2022/12/18 03:19:05;;;;;;;13.98;6.97;;;;;;;0.31;64.11;100990.50;1682070;83;21141;-58
2022/12/18 03:21:45;;;;;;;11.18;5.45;;;;;;;0.35;63.85;101005.91;1701452;83;21255;-59
2022/12/18 03:24:14;;;;;;;9.73;4.70;;;;;;;0.38;63.92;100999.79;1684783;83;21168;-57
2022/12/18 03:26:43;;;;;;;14.78;6.72;;;;;;;0.32;63.98;101007.29;1682842;83;21146;-57
2022/12/18 03:29:25;;;;;;;12.07;5.90;;;;;;;0.28;64.17;101005.66;1698907;83;21118;-57
2022/12/18 03:31:57;;;;;;;13.20;6.30;;;;;;;0.26;64.37;101012.63;1701970;83;21129;-58
2022/12/18 03:34:31;;;;;;;11.68;6.55;;;;;;;0.25;64.45;101021.27;1658247;83;21242;-58
2022/12/18 03:36:58;;;;;;;23.18;8.95;;;;;;;0.25;64.78;101020.43;1698090;83;21060;-58
2022/12/18 03:39:25;;;;;;;27.50;14.38;;;;;;;0.29;64.62;101028.53;1684381;83;21584;-59
2022/12/18 03:42:24;;;;;;;21.97;11.05;;;;;;;0.26;64.30;101028.61;1701056;83;21115;-59
2022/12/18 03:45:18;;;;;;;15.55;8.60;;;;;;;0.16;63.98;101031.42;1708216;82;21161;-59
2022/12/18 03:48:06;;;;;;;15.40;7.35;;;;;;;0.11;64.09;101042.80;1706302;82;21155;-57
2022/12/18 03:51:01;;;;;;;11.18;5.20;;;;;;;0.10;63.82;101021.27;1704982;82;21612;-57
2022/12/18 03:53:51;;;;;;;16.73;7.55;;;;;;;0.20;63.16;101033.94;1703020;82;21102;-57
2022/12/18 03:56:19;;;;;;;15.45;8.45;;;;;;;0.21;63.14;101039.53;1705692;82;21086;-57
2022/12/18 03:58:47;;;;;;;19.65;8.63;;;;;;;0.12;62.91;101043.22;1709500;82;22479;-55
2022/12/18 04:01:15;;;;;;;16.67;5.97;;;;;;;0.05;62.91;101039.94;1706698;82;21153;-57
2022/12/18 04:03:43;;;;;;;11.08;5.58;;;;;;;-0.01;62.54;101068.09;1709019;82;21154;-57
2022/12/18 04:06:11;;;;;;;10.75;4.40;;;;;;;-0.06;62.32;101059.60;1708442;82;21636;-59
2022/12/18 04:08:39;;;;;;;9.68;4.55;;;;;;;-0.14;61.99;101066.70;1705122;82;21432;-59
2022/12/18 04:11:07;;;;;;;11.33;5.60;;;;;;;-0.15;62.25;101080.95;1680252;82;21101;-58
2022/12/18 04:13:36;;;;;;;12.93;5.87;;;;;;;-0.20;62.39;101075.92;1676405;83;23132;-58
2022/12/18 04:16:04;;;;;;;11.60;5.90;;;;;;;-0.16;62.72;101080.13;1677522;83;21665;-61
2022/12/18 04:18:32;;;;;;;13.30;5.72;;;;;;;-0.09;62.81;101079.53;1700422;83;21359;-57
2022/12/18 04:20:59;;;;;;;10.03;4.95;;;;;;;-0.07;61.80;101098.02;1700916;82;21063;-59
2022/12/18 04:23:26;;;;;;;10.35;4.00;;;;;;;-0.11;60.88;101101.55;1749592;80;21687;-59
2022/12/18 04:25:54;;;;;;;10.20;4.45;;;;;;;-0.20;60.88;101111.69;1748038;80;21138;-59
2022/12/18 04:28:22;;;;;;;8.75;4.03;;;;;;;-0.28;60.61;101105.84;1746942;80;21483;-59
2022/12/18 04:30:49;;;;;;;9.90;4.50;;;;;;;-0.34;60.85;101129.24;1749396;80;21042;-58
2022/12/18 04:33:16;;;;;;;11.65;5.33;;;;;;;-0.45;61.18;101115.28;1674932;83;21544;-57
2022/12/18 04:35:43;;;;;;;11.60;4.28;;;;;;;-0.48;61.18;101120.97;1750353;80;21601;-59
2022/12/18 04:38:10;;;;;;;11.03;5.28;;;;;;;-0.52;61.05;101112.85;1748366;80;22276;-59
2022/12/18 04:40:38;;;;;;;10.72;3.95;;;;;;;-0.56;61.06;101125.84;1747085;80;21737;-59
2022/12/18 04:43:06;;;;;;;8.95;3.92;;;;;;;-0.57;61.19;101147.42;1747279;80;21074;-58
2022/12/18 04:45:33;;;;;;;7.33;4.03;;;;;;;-0.58;61.31;101128.91;1744841;80;21165;-60
2022/12/18 04:48:00;;;;;;;10.68;4.85;;;;;;;-0.63;61.22;101139.79;1745971;80;21027;-59
2022/12/18 04:50:27;;;;;;;10.60;5.62;;;;;;;-0.66;61.24;101135.13;1746822;80;21133;-57
2022/12/18 04:52:53;;;;;;;10.65;3.45;;;;;;;-0.67;61.51;101154.09;1747209;80;21313;-59
2022/12/18 04:55:20;;;;;;;10.80;4.00;;;;;;;-0.73;61.44;101133.57;1721046;80;21054;-59
2022/12/18 04:57:47;;;;;;;8.93;3.87;;;;;;;-0.72;61.43;101144.30;1747252;80;21081;-56
2022/12/18 05:00:15;;;;;;;10.38;4.05;;;;;;;-0.72;60.78;101168.85;1748237;80;21083;-59
2022/12/18 05:02:41;;;;;;;11.75;4.70;;;;;;;-0.70;60.74;101160.20;1744810;80;21805;-60
2022/12/18 05:05:08;;;;;;;10.90;3.70;;;;;;;-0.65;60.77;101153.65;1750485;80;21078;-60
2022/12/18 05:07:35;;;;;;;9.05;4.00;;;;;;;-0.61;60.28;101166.45;1745358;80;21031;-58
2022/12/18 05:10:02;;;;;;;10.63;4.72;;;;;;;-0.60;59.83;101169.91;1746410;80;21074;-59
2022/12/18 05:12:29;;;;;;;11.68;5.67;;;;;;;-0.63;60.01;101174.69;1746096;80;21695;-57
2022/12/18 05:14:55;;;;;;;10.72;5.30;;;;;;;-0.65;60.00;101185.95;1750809;80;21258;-58
2022/12/18 05:17:21;;;;;;;11.12;4.42;;;;;;;-0.72;60.24;101178.77;1741010;80;21098;-57
2022/12/18 05:19:48;;;;;;;8.68;3.62;;;;;;;-0.74;60.33;101174.05;1741458;80;21063;-59
2022/12/18 05:22:16;;;;;;;14.25;5.80;;;;;;;-0.71;60.14;101190.79;1737239;80;21193;-59
2022/12/18 05:24:43;;;;;;;19.10;7.40;;;;;;;-0.68;60.26;101193.77;1734335;80;21035;-59
2022/12/18 05:27:09;;;;;;;12.65;6.67;;;;;;;-0.72;60.59;101191.69;1736908;80;21217;-56
2022/12/18 05:29:36;;;;;;;8.95;4.00;;;;;;;-0.79;59.79;101187.50;1735194;80;21094;-57
2022/12/18 05:32:03;;;;;;;12.00;5.03;;;;;;;-0.69;60.09;101207.14;1741698;80;21712;-65
2022/12/18 05:34:29;;;;;;;10.80;4.70;;;;;;;-0.69;59.89;101198.09;1743417;80;21537;-57
2022/12/18 05:36:56;;;;;;;9.60;4.20;;;;;;;-0.69;59.73;101200.69;1744943;80;21565;-56
2022/12/18 05:39:23;;;;;;;13.22;4.97;;;;;;;-0.66;59.44;101216.09;1740274;80;21522;-57
2022/12/18 05:41:49;;;;;;;10.32;4.15;;;;;;;-0.69;59.29;101209.73;1734909;80;21628;-56
2022/12/18 05:44:16;;;;;;;12.58;4.45;;;;;;;-0.73;59.22;101233.91;1739292;80;20980;-58
2022/12/18 05:46:44;;;;;;;8.43;3.17;;;;;;;-0.79;59.42;101218.52;1738353;80;21407;-58
2022/12/18 05:49:11;;;;;;;10.65;4.28;;;;;;;-0.85;59.50;101232.42;1738264;80;21120;-59
2022/12/18 05:51:37;;;;;;;9.65;4.00;;;;;;;-0.89;59.68;101235.95;1740625;80;21269;-57
2022/12/18 05:54:04;;;;;;;9.48;4.33;;;;;;;-0.96;59.87;101249.84;1742216;80;21055;-58
2022/12/18 05:56:31;;;;;;;11.83;5.15;;;;;;;-0.96;60.18;101240.39;1739643;80;21043;-58
2022/12/18 05:58:58;;;;;;;8.58;3.22;;;;;;;-0.96;59.75;101234.34;1740531;80;21102;-57
2022/12/18 06:01:26;;;;;;;13.22;4.00;;;;;;;-0.99;59.67;101262.39;1742116;80;21095;-58
2022/12/18 06:03:53;;;;;;;10.03;3.25;;;;;;;-1.05;59.97;101262.49;1740976;80;21772;-58
2022/12/18 06:06:24;;;;;;;8.33;3.30;;;;;;;-1.08;59.69;101270.74;1740499;80;21636;-59
2022/12/18 06:08:51;;;;;;;7.58;3.30;;;;;;;-1.05;59.95;101277.99;1739615;80;21055;-58
2022/12/18 06:11:21;;;;;;;7.55;4.05;;;;;;;-1.03;59.75;101280.10;1740615;80;21063;-57
2022/12/18 06:13:50;;;;;;;12.25;4.85;;;;;;;-1.00;59.61;101289.55;1736689;80;21051;-58
2022/12/18 06:16:18;;;;;;;9.58;4.42;;;;;;;-1.00;59.58;101296.84;1745115;80;21216;-58
2022/12/18 06:18:45;;;;;;;12.20;3.77;;;;;;;-1.00;59.94;101297.30;1744829;80;21058;-59
2022/12/18 06:21:11;;;;;;;11.88;4.90;;;;;;;-0.96;59.82;101302.39;1755819;80;21379;-58
2022/12/18 06:23:37;;;;;;;10.05;4.12;;;;;;;-0.93;59.67;101318.27;1753052;80;21065;-58
2022/12/18 06:26:06;;;;;;;8.93;3.60;;;;;;;-0.96;59.31;101316.60;1751948;80;21042;-59
2022/12/18 06:28:33;;;;;;;11.57;3.67;;;;;;;-0.94;59.48;101313.99;1750863;80;21168;-59
2022/12/18 06:30:59;;;;;;;7.05;2.72;;;;;;;-0.91;59.40;101319.53;1750060;80;21059;-59
2022/12/18 06:33:28;;;;;;;6.90;3.22;;;;;;;-0.94;59.38;101321.30;1749455;80;21098;-58
2022/12/18 06:35:56;;;;;;;9.70;3.62;;;;;;;-0.94;59.62;101317.87;1708458;83;21074;-59
2022/12/18 06:38:23;;;;;;;7.55;3.52;;;;;;;-0.98;59.37;101328.67;1696736;83;21079;-58
2022/12/18 06:40:49;;;;;;;10.38;4.03;;;;;;;-0.95;59.50;101329.07;1678953;83;21251;-58
2022/12/18 06:43:16;;;;;;;11.75;5.22;;;;;;;-0.95;59.54;101327.78;1691149;83;21087;-56
2022/12/18 06:45:43;;;;;;;10.35;4.78;;;;;;;-0.96;58.56;101336.39;1689539;83;21067;-58
2022/12/18 06:48:09;;;;;;;8.18;2.77;;;;;;;-0.86;58.68;101343.11;1691744;83;21138;-58
2022/12/18 06:50:36;;;;;;;11.30;3.30;;;;;;;-0.90;58.50;101346.64;1689942;83;21151;-57
2022/12/18 06:53:02;;;;;;;6.67;3.02;;;;;;;-0.92;58.14;101348.81;1700300;82;21263;-58
2022/12/18 06:55:29;;;;;;;7.03;2.95;;;;;;;-0.99;58.17;101357.98;1710863;82;21197;-58
2022/12/18 06:57:57;;;;;;;8.70;3.55;;;;;;;-1.02;58.47;101359.77;1712177;82;21129;-59
2022/12/18 07:00:24;;;;;;;8.88;3.90;;;;;;;-0.99;58.56;101372.64;1715126;82;21098;-57
2022/12/18 07:02:50;;;;;;;6.42;2.05;;;;;;;-0.97;58.33;101373.46;1711516;82;21162;-58
2022/12/18 07:05:17;;;;;;;8.10;3.70;;;;;;;-0.94;58.36;101380.72;1708074;82;21282;-57
2022/12/18 07:07:44;;;;;;;9.60;3.75;;;;;;;-0.97;58.30;101387.23;1707187;82;21126;-56
2022/12/18 07:10:10;;;;;;;11.48;4.37;;;;;;;-1.00;58.58;101385.98;1711842;82;21086;-58
2022/12/18 07:12:37;;;;;;;7.85;2.45;;;;;;;-1.01;58.49;101397.20;1710021;82;21118;-57
2022/12/18 07:15:06;;;;;;;11.60;3.65;;;;;;;-1.00;58.42;101395.02;1716596;82;21442;-58
2022/12/18 07:17:34;;;;;;;7.35;3.17;;;;;;;-1.00;58.63;101396.31;1701397;83;21162;-57
2022/12/18 07:20:01;;;;;;;8.13;3.50;;;;;;;-0.97;58.41;101435.02;1671119;83;21125;-56
2022/12/18 07:22:27;;;;;;;9.33;3.90;;;;;;;-1.01;58.50;101410.13;1743048;80;21089;-57
2022/12/18 07:24:55;;;;;;;9.05;3.50;;;;;;;-1.01;58.37;101413.13;1741968;80;21050;-58
2022/12/18 07:27:22;;;;;;;12.28;4.87;;;;;;;-1.00;58.21;101427.77;1740035;80;21533;-57
2022/12/18 07:29:49;;;;;;;9.23;3.17;;;;;;;-1.01;57.77;101405.38;1744238;80;21067;-57
2022/12/18 07:32:16;;;;;;;9.48;3.52;;;;;;;-0.99;57.75;101426.89;1741531;80;21082;-58
2022/12/18 07:34:42;;;;;;;7.30;2.90;;;;;;;-1.03;57.84;101428.64;1740715;80;21078;-57
2022/12/18 07:37:09;;;;;;;7.37;3.42;;;;;;;-1.06;58.00;101454.55;1745081;80;21097;-56
2022/12/18 07:39:35;;;;;;;8.05;3.92;;;;;;;-1.10;57.87;101440.40;1743798;80;21054;-57
2022/12/18 07:44:47;;;;;;;9.70;4.55;;;;;;;-1.05;57.86;101439.89;1701849;82;21403;-57
2022/12/18 07:47:14;;;;;;;6.65;2.52;;;;;;;-1.00;58.03;101454.89;1742586;80;21090;-58
2022/12/18 07:49:40;;;;;;;7.10;2.90;;;;;;;-0.98;57.92;101462.17;1737250;80;21087;-58
2022/12/18 07:52:08;;;;;;;9.28;3.72;;;;;;;-1.12;61.40;101452.05;1740449;80;21504;-58
2022/12/18 07:54:34;;;;;;;10.10;3.92;;;;;;;-1.12;61.40;101452.05;1737376;80;22072;-57
2022/12/18 07:57:01;;;;;;;10.28;3.45;;;;;;;-1.15;60.30;101473.59;1742841;80;21407;-57
2022/12/18 07:59:28;;;;;;;7.80;3.10;;;;;;;-1.14;61.43;101464.13;1742078;80;21165;-58
2022/12/18 08:01:55;;;;;;;9.58;4.05;;;;;;;-1.19;59.84;101474.97;1742038;80;21145;-57
2022/12/18 08:04:21;;;;;;;9.43;2.85;;;;;;;-1.23;59.83;101475.88;1740095;80;21079;-58
2022/12/18 08:06:47;;;;;;;9.38;3.42;;;;;;;-1.18;59.24;101477.95;1744039;80;21247;-59
2022/12/18 08:09:14;;;;;;;9.80;4.10;;;;;;;-1.12;58.79;101476.14;1742151;80;21141;-57
2022/12/18 08:11:41;;;;;;;8.45;3.72;;;;;;;-1.12;58.03;101483.05;1738270;80;21047;-59
2022/12/18 08:14:07;;;;;;;12.55;4.80;;;;;;;-1.07;58.10;101495.45;1742719;80;21087;-58
2022/12/18 08:16:34;;;;;;;10.50;3.17;;;;;;;-1.07;58.11;101495.45;1741399;80;21098;-58
2022/12/18 08:19:00;;;;;;;10.82;3.52;;;;;;;-1.12;57.89;101503.70;1735066;80;22907;-57
2022/12/18 08:21:29;;;;;;;8.65;4.40;;;;;;;-1.12;57.89;101503.70;1732969;80;21692;-56
2022/12/18 08:23:58;;;;;;;8.50;3.65;;;;;;;-1.19;57.55;101508.09;1734157;80;21046;-56
2022/12/18 08:26:28;;;;;;;9.90;3.85;;;;;;;-1.14;57.53;101519.67;1731300;80;21807;-55
2022/12/18 08:28:56;;;;;;;9.55;3.52;;;;;;;-1.13;57.23;101526.52;1729061;80;20984;-56
2022/12/18 08:31:22;;;;;;;10.35;3.58;;;;;;;-1.15;59.48;101526.98;1733486;80;22837;-56
2022/12/18 08:33:50;;;;;;;8.28;3.52;;;;;;;-1.20;60.00;101537.81;1733951;80;21542;-57
2022/12/18 08:36:17;;;;;;;7.08;3.20;;;;;;;-1.25;58.90;101543.48;1734112;80;21126;-56
2022/12/18 08:38:44;;;;;;;6.67;2.87;;;;;;;-1.27;58.41;101534.45;1732923;80;21067;-57
2022/12/18 08:41:14;;;;;;;7.65;3.17;;;;;;;-1.26;58.43;101524.56;1696504;82;21109;-55
2022/12/18 08:46:27;;;;;;;7.70;3.12;;;;;;;-1.15;57.16;101528.28;1732934;80;21059;-55
2022/12/18 08:48:55;;;;;;;7.20;3.10;;;;;;;-1.18;57.17;101531.77;1733204;80;21098;-56
2022/12/18 08:51:22;;;;;;;7.97;3.45;;;;;;;-1.18;57.17;101531.77;1729615;80;21204;-57
2022/12/18 08:53:48;;;;;;;10.58;3.33;;;;;;;-1.14;60.29;101532.59;1734640;80;21189;-56
2022/12/18 08:56:15;;;;;;;8.78;3.55;;;;;;;-1.12;61.30;101530.83;1735733;80;21126;-57
2022/12/18 08:58:42;;;;;;;7.75;3.08;;;;;;;-1.05;61.11;101540.20;1734782;80;21059;-65
2022/12/18 09:01:11;;;;;;;9.93;3.80;;;;;;;-1.04;60.07;101549.67;1733003;80;21518;-66
2022/12/18 09:03:37;;;;;;;9.30;3.87;;;;;;;-1.01;58.49;101544.88;1734157;80;21573;-68
2022/12/18 09:06:04;;;;;;;7.65;3.75;;;;;;;-1.03;57.97;101544.90;1735097;80;21086;-66
2022/12/18 09:08:38;;;;;;;7.05;3.40;;;;;;;-1.02;57.60;101573.75;1733707;80;21188;-68
2022/12/18 09:11:08;;;;;;;7.17;3.45;;;;;;;-1.04;59.66;101547.50;1736100;80;21058;-67
2022/12/18 09:13:35;;;;;;;9.93;4.28;;;;;;;-1.09;59.49;101542.42;1721415;80;21075;-67
2022/12/18 09:16:03;;;;;;;9.13;3.58;;;;;;;-1.13;58.58;101544.61;1734080;80;21327;-69
2022/12/18 09:18:30;;;;;;;7.67;3.40;;;;;;;-1.15;57.44;101523.95;1739709;80;21090;-67
2022/12/18 09:20:56;;;;;;;6.83;3.25;;;;;;;-1.04;57.01;101552.66;1736308;80;21917;-68
2022/12/18 09:23:23;;;;;;;9.20;3.70;;;;;;;-1.01;57.27;101553.51;1738443;80;21111;-68
2022/12/18 09:25:50;;;;;;;6.72;3.00;;;;;;;-0.99;56.67;101556.92;1739345;80;21608;-68
2022/12/18 09:28:18;;;;;;;8.65;3.33;;;;;;;-0.97;56.81;101549.15;1737865;80;21066;-67
2022/12/18 09:30:48;;;;;;;9.15;3.62;;;;;;;-0.92;56.31;101561.56;1729509;80;21115;-68
2022/12/18 09:33:16;;;;;;;9.73;4.20;;;;;;;-0.88;55.97;101560.64;1733723;80;21986;-66
2022/12/18 09:35:44;;;;;;;7.25;3.27;;;;;;;-0.90;55.75;101571.44;1736757;80;21058;-66
2022/12/18 09:38:13;;;;;;;9.25;4.03;;;;;;;-0.87;55.36;101577.02;1731836;80;21090;-66
2022/12/18 09:40:52;;;;;;;9.68;3.83;;;;;;;-0.86;55.30;101580.00;1733096;80;21520;-65
2022/12/18 09:43:23;;;;;;;9.53;3.45;;;;;;;-0.85;55.63;101583.02;1735409;80;21071;-55
2022/12/18 09:45:53;;;;;;;10.03;4.10;;;;;;;-0.82;55.99;101568.77;1733539;80;21174;-56
2022/12/18 09:48:33;;;;;;;7.72;2.87;;;;;;;-0.76;56.21;101566.08;1732746;80;21050;-56
2022/12/18 09:51:04;;;;;;;9.63;3.67;;;;;;;-0.71;56.31;101564.28;1736067;80;21047;-56
2022/12/18 09:53:34;;;;;;;9.40;3.70;;;;;;;-0.70;56.29;101573.75;1737704;80;21676;-56
2022/12/18 09:56:00;;;;;;;12.05;5.22;;;;;;;-0.70;56.34;101578.92;1735171;80;21051;-56
2022/12/18 09:58:32;;;;;;;11.22;4.65;;;;;;;-0.70;56.82;101590.55;1732402;80;21299;-56
2022/12/18 10:00:58;;;;;;;6.90;3.60;;;;;;;-0.73;57.13;101598.34;1734244;80;22549;-57
2022/12/18 10:03:25;;;;;;;7.65;3.05;;;;;;;-0.74;56.70;101619.89;1737828;80;21106;-55
2022/12/18 10:06:17;;;;;;;7.30;3.25;;;;;;;-0.82;55.60;101605.79;1677033;83;21164;-55
2022/12/18 10:09:04;;;;;;;8.03;3.05;;;;;;;-0.89;54.86;101595.13;1736393;80;21125;-56
2022/12/18 10:12:01;;;;;;;8.38;3.00;;;;;;;-0.96;54.29;101599.52;1713152;80;21300;-55
2022/12/18 10:14:51;;;;;;;7.53;2.80;;;;;;;-0.94;54.61;101600.34;1692464;84;21722;-54
2022/12/18 10:17:44;;;;;;;7.42;2.27;;;;;;;-0.92;55.08;101608.08;1736105;80;21554;-55
2022/12/18 10:22:45;;;;;;;6.78;2.42;;;;;;;-1.01;55.47;101607.77;1793278;77;22380;-67
2022/12/18 10:26:02;;;;;;;8.90;3.47;;;;;;;-0.90;55.29;101608.91;1773418;80;20970;-67
2022/12/18 10:28:31;;;;;;;7.75;3.40;;;;;;;-0.99;55.08;101626.67;1771027;80;21323;-71
2022/12/18 10:30:58;;;;;;;7.20;2.65;;;;;;;-0.97;55.17;101622.78;1770985;80;21049;-69
2022/12/18 10:33:29;;;;;;;8.25;3.20;;;;;;;-1.03;55.17;101618.53;1745586;80;21094;-68
2022/12/18 10:35:56;;;;;;;7.97;3.17;;;;;;;-1.07;55.25;101641.41;1765922;80;20990;-66
2022/12/18 10:38:27;;;;;;;7.33;2.47;;;;;;;-1.16;55.65;101644.08;1744816;80;21100;-68
2022/12/18 10:41:27;;;;;;;10.23;3.15;;;;;;;-1.21;55.74;101654.48;1768686;80;21106;-69
2022/12/18 10:44:20;;;;;;;7.45;2.50;;;;;;;-1.27;56.96;101640.34;1775106;80;21555;-66
2022/12/18 10:46:53;;;;;;;7.12;2.83;;;;;;;-1.29;57.31;101639.92;1774494;80;21129;-71
2022/12/18 10:49:31;;;;;;;8.05;3.40;;;;;;;-1.26;57.03;101643.36;1768906;80;21486;-69
2022/12/18 10:52:19;;;;;;;7.42;2.72;;;;;;;-1.25;56.18;101635.16;1774371;80;21113;-67
2022/12/18 10:54:49;;;;;;;9.68;4.03;;;;;;;-1.19;56.24;101640.27;1775021;78;21282;-69
2022/12/18 10:57:29;;;;;;;9.08;3.52;;;;;;;-1.20;56.26;101643.71;1775406;80;21476;-65
2022/12/18 10:59:59;;;;;;;5.85;2.45;;;;;;;-1.18;56.19;101645.83;1777325;79;20968;-68
2022/12/18 11:02:34;;;;;;;8.00;2.65;;;;;;;-1.20;56.25;101646.30;1773971;80;21051;-69
2022/12/18 11:05:01;;;;;;;8.03;3.92;;;;;;;-1.24;56.21;101650.64;1771224;80;20943;-67
2022/12/18 11:07:49;;;;;;;7.45;4.30;;;;;;;-1.22;56.40;101662.25;1773324;80;21446;-67
2022/12/18 11:10:18;;;;;;;7.97;2.70;;;;;;;-1.24;56.07;101652.38;1756076;80;21153;-65
2022/12/18 11:12:45;;;;;;;8.93;3.40;;;;;;;-1.20;56.25;101654.05;1768290;78;21064;-71
2022/12/18 11:15:27;;;;;;;7.72;3.15;;;;;;;-1.19;56.20;101672.11;1772821;80;21037;-65
2022/12/18 11:17:54;;;;;;;7.70;3.55;;;;;;;-1.18;56.51;101658.34;1776128;80;21057;-66
2022/12/18 11:20:31;;;;;;;7.55;3.02;;;;;;;-1.14;56.40;101675.94;1773349;80;21263;-66
2022/12/18 11:23:06;;;;;;;8.25;3.47;;;;;;;-1.14;56.38;101665.61;1744927;79;21074;-66
2022/12/18 11:25:33;;;;;;;9.60;3.95;;;;;;;-1.18;55.89;101689.74;1759207;80;21035;-66
2022/12/18 11:28:40;;;;;;;6.10;2.92;;;;;;;-1.20;55.88;101694.92;1765790;79;21115;-66
2022/12/18 11:31:25;;;;;;;6.20;2.75;;;;;;;-1.18;56.03;101706.53;1726049;80;21047;-66
2022/12/18 11:34:04;;;;;;;7.55;2.90;;;;;;;-1.23;56.03;101707.02;1768549;80;21170;-66
2022/12/18 11:36:38;;;;;;;8.35;3.15;;;;;;;-1.25;56.13;101708.77;1765117;80;21062;-66
2022/12/18 11:39:16;;;;;;;7.97;3.33;;;;;;;-1.26;56.44;101710.50;1749644;80;21065;-67
2022/12/18 11:42:09;;;;;;;6.78;2.75;;;;;;;-1.23;56.77;101712.18;1759853;79;21071;-67
2022/12/18 11:44:53;;;;;;;6.00;2.27;;;;;;;-1.20;56.31;101719.45;1763740;80;21581;-65
2022/12/18 11:47:42;;;;;;;7.20;2.40;;;;;;;-1.20;56.43;101724.63;1762286;79;22309;-67
2022/12/18 11:50:16;;;;;;;9.05;3.65;;;;;;;-1.19;56.56;101721.63;1756974;80;21044;-66
2022/12/18 11:52:43;;;;;;;8.78;3.45;;;;;;;-1.22;56.46;101734.56;1763732;80;21058;-66
2022/12/18 11:55:30;;;;;;;6.40;2.95;;;;;;;-1.25;56.69;101746.21;1761075;80;21049;-64
2022/12/18 11:58:17;;;;;;;9.30;3.37;;;;;;;-1.33;57.52;101748.44;1762429;80;21111;-65
2022/12/18 12:01:02;;;;;;;7.20;3.05;;;;;;;-1.38;57.33;101746.33;1734985;80;21392;-65
2022/12/18 12:03:53;;;;;;;8.50;3.42;;;;;;;-1.34;57.23;101737.67;1759526;79;21136;-65
2022/12/18 12:06:25;;;;;;;8.40;3.27;;;;;;;-1.35;57.34;101741.56;1758115;80;21520;-66
2022/12/18 12:09:22;;;;;;;8.03;2.52;;;;;;;-1.37;57.90;101745.44;1758710;80;21055;-64
2022/12/18 12:11:57;;;;;;;7.67;2.80;;;;;;;-1.32;58.32;101747.99;1754789;80;21059;-65
2022/12/18 12:14:44;;;;;;;7.00;2.87;;;;;;;-1.24;57.62;101753.11;1759103;80;22184;-65
2022/12/18 12:17:26;;;;;;;8.43;3.37;;;;;;;-1.27;57.45;101753.97;1762069;80;21052;-64
2022/12/18 12:20:14;;;;;;;9.98;3.67;;;;;;;-1.31;57.67;101751.01;1738520;79;21088;-64
2022/12/18 12:23:01;;;;;;;8.70;3.30;;;;;;;-1.25;57.73;101757.39;1743278;80;21099;-64
2022/12/18 12:27:20;;;;;;;8.43;2.85;;;;;;;-1.35;58.30;101766.94;1780145;78;22000;-64
2022/12/18 12:29:58;;;;;;;8.65;3.17;;;;;;;-1.23;57.77;101771.59;1769010;80;21018;-64